sensor_id;sensor_type;location;lat;lon;timestamp;pressure;altitude;pressure_sealevel;temperature;humidity
12624;BME280;6377;42.836;23.998;2023-04-25T00:01:28;94858.47;;;11.21;100.00
12624;BME280;6377;42.836;23.998;2023-04-25T00:03:55;94857.25;;;11.17;100.00
12624;BME280;6377;42.836;23.998;2023-04-25T00:06:22;94869.00;;;11.01;100.00
12624;BME280;6377;42.836;23.998;2023-04-25T00:08:52;94857.03;;;11.05;100.00
12624;BME280;6377;42.836;23.998;2023-04-25T00:11:19;94857.84;;;11.12;100.00
12624;BME280;6377;42.836;23.998;2023-04-25T00:13:46;94805.88;;;10.79;100.00
12624;BME280;6377;42.836;23.998;2023-04-25T00:16:16;94859.28;;;11.15;100.00
12624;BME280;6377;42.836;23.998;2023-04-25T00:18:44;94865.41;;;11.35;100.00
12624;BME280;6377;42.836;23.998;2023-04-25T00:21:17;94858.88;;;11.38;100.00
12624;BME280;6377;42.836;23.998;2023-04-25T00:23:45;94874.38;;;11.54;100.00
12624;BME280;6377;42.836;23.998;2023-04-25T00:26:12;94816.53;;;11.18;100.00
12624;BME280;6377;42.836;23.998;2023-04-25T00:28:40;94899.00;;;11.48;100.00
12624;BME280;6377;42.836;23.998;2023-04-25T00:31:07;94832.81;;;11.08;100.00
12624;BME280;6377;42.836;23.998;2023-04-25T00:33:36;94812.25;;;11.17;100.00
12624;BME280;6377;42.836;23.998;2023-04-25T00:36:03;94857.47;;;11.55;100.00
12624;BME280;6377;42.836;23.998;2023-04-25T00:38:31;94844.84;;;11.50;100.00
12624;BME280;6377;42.836;23.998;2023-04-25T00:40:58;94838.53;;;11.38;100.00
12624;BME280;6377;42.836;23.998;2023-04-25T00:43:26;94828.16;;;11.30;100.00
12624;BME280;6377;42.836;23.998;2023-04-25T00:45:54;94805.91;;;11.05;100.00
12624;BME280;6377;42.836;23.998;2023-04-25T00:48:23;94859.88;;;11.17;100.00
12624;BME280;6377;42.836;23.998;2023-04-25T00:50:53;94825.44;;;10.91;100.00
12624;BME280;6377;42.836;23.998;2023-04-25T00:53:21;94815.25;;;10.88;100.00
12624;BME280;6377;42.836;23.998;2023-04-25T00:55:49;94871.47;;;11.16;100.00
12624;BME280;6377;42.836;23.998;2023-04-25T00:58:17;94792.63;;;10.72;100.00
12624;BME280;6377;42.836;23.998;2023-04-25T01:00:45;94867.22;;;11.28;100.00
12624;BME280;6377;42.836;23.998;2023-04-25T01:03:13;94786.56;;;10.78;100.00
12624;BME280;6377;42.836;23.998;2023-04-25T01:05:42;94872.94;;;11.32;100.00
12624;BME280;6377;42.836;23.998;2023-04-25T01:08:11;94776.34;;;10.68;100.00
12624;BME280;6377;42.836;23.998;2023-04-25T01:10:38;94862.34;;;11.38;100.00
12624;BME280;6377;42.836;23.998;2023-04-25T01:13:07;94781.25;;;10.78;100.00
12624;BME280;6377;42.836;23.998;2023-04-25T01:15:34;94797.38;;;11.03;100.00
12624;BME280;6377;42.836;23.998;2023-04-25T01:18:03;94767.03;;;11.18;100.00
12624;BME280;6377;42.836;23.998;2023-04-25T01:20:32;94761.16;;;11.16;100.00
12624;BME280;6377;42.836;23.998;2023-04-25T01:23:01;94764.63;;;11.30;100.00
12624;BME280;6377;42.836;23.998;2023-04-25T01:25:29;94797.38;;;11.55;100.00
12624;BME280;6377;42.836;23.998;2023-04-25T01:27:57;94764.81;;;11.35;100.00
12624;BME280;6377;42.836;23.998;2023-04-25T01:30:26;94836.06;;;11.63;100.00
12624;BME280;6377;42.836;23.998;2023-04-25T01:32:55;94749.56;;;11.24;100.00
12624;BME280;6377;42.836;23.998;2023-04-25T01:35:23;94813.69;;;11.72;100.00
12624;BME280;6377;42.836;23.998;2023-04-25T01:37:51;94755.84;;;11.43;100.00
12624;BME280;6377;42.836;23.998;2023-04-25T01:40:21;94758.47;;;11.49;100.00
12624;BME280;6377;42.836;23.998;2023-04-25T01:42:49;94792.66;;;11.84;100.00
12624;BME280;6377;42.836;23.998;2023-04-25T01:45:16;94750.31;;;11.64;100.00
12624;BME280;6377;42.836;23.998;2023-04-25T01:47:44;94786.56;;;11.83;100.00
12624;BME280;6377;42.836;23.998;2023-04-25T01:50:15;94757.66;;;11.62;100.00
12624;BME280;6377;42.836;23.998;2023-04-25T01:52:43;94751.75;;;11.53;100.00
12624;BME280;6377;42.836;23.998;2023-04-25T01:55:10;94798.97;;;11.89;100.00
12624;BME280;6377;42.836;23.998;2023-04-25T01:57:39;94748.06;;;11.61;100.00
12624;BME280;6377;42.836;23.998;2023-04-25T02:00:08;94737.47;;;11.54;100.00
12624;BME280;6377;42.836;23.998;2023-04-25T02:02:36;94744.63;;;11.73;100.00
12624;BME280;6377;42.836;23.998;2023-04-25T02:05:03;94739.50;;;11.78;100.00
12624;BME280;6377;42.836;23.998;2023-04-25T02:07:31;94740.72;;;11.76;100.00
12624;BME280;6377;42.836;23.998;2023-04-25T02:09:59;94731.97;;;11.82;100.00
12624;BME280;6377;42.836;23.998;2023-04-25T02:12:27;94759.03;;;11.91;100.00
12624;BME280;6377;42.836;23.998;2023-04-25T02:14:56;94700.00;;;11.51;100.00
12624;BME280;6377;42.836;23.998;2023-04-25T02:17:23;94727.50;;;11.76;100.00
12624;BME280;6377;42.836;23.998;2023-04-25T02:19:51;94725.03;;;11.81;100.00
12624;BME280;6377;42.836;23.998;2023-04-25T02:22:19;94704.88;;;11.73;100.00
12624;BME280;6377;42.836;23.998;2023-04-25T02:24:46;94729.50;;;11.80;100.00
12624;BME280;6377;42.836;23.998;2023-04-25T02:27:14;94711.59;;;11.69;100.00
12624;BME280;6377;42.836;23.998;2023-04-25T02:29:41;94716.09;;;11.62;100.00
12624;BME280;6377;42.836;23.998;2023-04-25T02:32:10;94709.34;;;11.60;100.00
12624;BME280;6377;42.836;23.998;2023-04-25T02:34:37;94712.88;;;11.41;100.00
12624;BME280;6377;42.836;23.998;2023-04-25T02:37:04;94714.09;;;11.45;100.00
12624;BME280;6377;42.836;23.998;2023-04-25T02:39:31;94739.13;;;11.55;100.00
12624;BME280;6377;42.836;23.998;2023-04-25T02:41:58;94722.41;;;11.48;100.00
12624;BME280;6377;42.836;23.998;2023-04-25T02:44:26;94708.41;;;11.35;100.00
12624;BME280;6377;42.836;23.998;2023-04-25T02:46:53;94716.53;;;11.46;100.00
12624;BME280;6377;42.836;23.998;2023-04-25T02:49:22;94703.28;;;11.33;100.00
12624;BME280;6377;42.836;23.998;2023-04-25T02:51:50;94693.34;;;11.29;100.00
12624;BME280;6377;42.836;23.998;2023-04-25T02:54:17;94707.56;;;11.41;100.00
12624;BME280;6377;42.836;23.998;2023-04-25T02:56:44;94739.31;;;11.54;100.00
12624;BME280;6377;42.836;23.998;2023-04-25T02:59:11;94719.22;;;11.13;100.00
12624;BME280;6377;42.836;23.998;2023-04-25T03:01:39;94710.44;;;11.19;100.00
12624;BME280;6377;42.836;23.998;2023-04-25T03:04:06;94742.44;;;11.11;100.00
12624;BME280;6377;42.836;23.998;2023-04-25T03:06:35;94684.22;;;10.85;100.00
12624;BME280;6377;42.836;23.998;2023-04-25T03:09:02;94732.44;;;11.07;100.00
12624;BME280;6377;42.836;23.998;2023-04-25T03:11:30;94698.25;;;10.79;100.00
12624;BME280;6377;42.836;23.998;2023-04-25T03:13:57;94728.38;;;10.91;100.00
12624;BME280;6377;42.836;23.998;2023-04-25T03:16:24;94733.84;;;10.83;100.00
12624;BME280;6377;42.836;23.998;2023-04-25T03:18:52;94716.38;;;10.76;100.00
12624;BME280;6377;42.836;23.998;2023-04-25T03:21:19;94726.75;;;10.71;100.00
12624;BME280;6377;42.836;23.998;2023-04-25T03:23:48;94726.53;;;10.72;100.00
12624;BME280;6377;42.836;23.998;2023-04-25T03:26:15;94708.00;;;10.52;100.00
12624;BME280;6377;42.836;23.998;2023-04-25T03:28:42;94688.47;;;10.40;100.00
12624;BME280;6377;42.836;23.998;2023-04-25T03:31:09;94699.03;;;10.40;100.00
12624;BME280;6377;42.836;23.998;2023-04-25T03:33:36;94704.97;;;10.62;100.00
12624;BME280;6377;42.836;23.998;2023-04-25T03:36:04;94629.00;;;10.10;100.00
12624;BME280;6377;42.836;23.998;2023-04-25T03:38:32;94693.53;;;10.35;100.00
12624;BME280;6377;42.836;23.998;2023-04-25T03:41:01;94645.03;;;9.95;100.00
12624;BME280;6377;42.836;23.998;2023-04-25T03:43:28;94705.31;;;10.39;100.00
12624;BME280;6377;42.836;23.998;2023-04-25T03:45:55;94760.31;;;10.70;100.00
12624;BME280;6377;42.836;23.998;2023-04-25T03:48:22;94700.81;;;10.20;100.00
12624;BME280;6377;42.836;23.998;2023-04-25T03:50:50;94701.88;;;10.39;100.00
12624;BME280;6377;42.836;23.998;2023-04-25T03:53:17;94771.91;;;10.82;100.00
12624;BME280;6377;42.836;23.998;2023-04-25T03:55:45;94650.78;;;10.12;100.00
12624;BME280;6377;42.836;23.998;2023-04-25T03:58:13;94697.00;;;10.36;100.00
12624;BME280;6377;42.836;23.998;2023-04-25T04:00:40;94720.84;;;10.62;100.00
12624;BME280;6377;42.836;23.998;2023-04-25T04:03:08;94780.25;;;10.92;100.00
12624;BME280;6377;42.836;23.998;2023-04-25T04:05:36;94779.25;;;10.93;100.00
12624;BME280;6377;42.836;23.998;2023-04-25T04:08:06;94733.25;;;10.68;100.00
12624;BME280;6377;42.836;23.998;2023-04-25T04:10:33;94738.31;;;10.63;100.00
12624;BME280;6377;42.836;23.998;2023-04-25T04:13:00;94745.84;;;10.53;100.00
12624;BME280;6377;42.836;23.998;2023-04-25T04:15:29;94789.19;;;10.78;100.00
12624;BME280;6377;42.836;23.998;2023-04-25T04:17:58;94725.44;;;10.34;100.00
12624;BME280;6377;42.836;23.998;2023-04-25T04:20:28;94768.44;;;10.62;100.00
12624;BME280;6377;42.836;23.998;2023-04-25T04:22:56;94780.00;;;10.54;100.00
12624;BME280;6377;42.836;23.998;2023-04-25T04:25:23;94780.00;;;10.61;100.00
12624;BME280;6377;42.836;23.998;2023-04-25T04:27:51;94672.69;;;9.99;100.00
12624;BME280;6377;42.836;23.998;2023-04-25T04:30:21;94706.84;;;10.07;100.00
12624;BME280;6377;42.836;23.998;2023-04-25T04:32:51;94775.72;;;10.60;100.00
12624;BME280;6377;42.836;23.998;2023-04-25T04:35:18;94774.31;;;10.64;100.00
12624;BME280;6377;42.836;23.998;2023-04-25T04:37:45;94781.00;;;10.60;100.00
12624;BME280;6377;42.836;23.998;2023-04-25T04:40:13;94781.25;;;10.65;100.00
12624;BME280;6377;42.836;23.998;2023-04-25T04:42:42;94779.00;;;10.68;100.00
12624;BME280;6377;42.836;23.998;2023-04-25T04:45:10;94776.78;;;10.79;100.00
12624;BME280;6377;42.836;23.998;2023-04-25T04:47:38;94770.25;;;10.75;100.00
12624;BME280;6377;42.836;23.998;2023-04-25T04:50:08;94716.94;;;10.38;100.00
12624;BME280;6377;42.836;23.998;2023-04-25T04:52:35;94771.88;;;10.69;100.00
12624;BME280;6377;42.836;23.998;2023-04-25T04:55:03;94786.75;;;10.83;100.00
12624;BME280;6377;42.836;23.998;2023-04-25T04:57:31;94631.22;;;9.93;100.00
12624;BME280;6377;42.836;23.998;2023-04-25T04:59:58;94703.72;;;10.45;100.00
12624;BME280;6377;42.836;23.998;2023-04-25T05:02:26;94777.63;;;11.05;100.00
12624;BME280;6377;42.836;23.998;2023-04-25T05:04:53;94750.38;;;10.92;100.00
12624;BME280;6377;42.836;23.998;2023-04-25T05:07:22;94649.44;;;10.49;100.00
12624;BME280;6377;42.836;23.998;2023-04-25T05:09:49;94795.13;;;11.39;100.00
12624;BME280;6377;42.836;23.998;2023-04-25T05:12:16;94763.59;;;11.44;100.00
12624;BME280;6377;42.836;23.998;2023-04-25T05:14:43;94777.41;;;11.59;100.00
12624;BME280;6377;42.836;23.998;2023-04-25T05:17:10;94768.47;;;11.73;100.00
12624;BME280;6377;42.836;23.998;2023-04-25T05:19:37;94775.75;;;11.91;100.00
12624;BME280;6377;42.836;23.998;2023-04-25T05:22:05;94775.69;;;12.04;100.00
12624;BME280;6377;42.836;23.998;2023-04-25T05:24:33;94778.94;;;12.13;100.00
12624;BME280;6377;42.836;23.998;2023-04-25T05:27:00;94751.66;;;11.99;100.00
12624;BME280;6377;42.836;23.998;2023-04-25T05:29:27;94762.34;;;12.30;100.00
12624;BME280;6377;42.836;23.998;2023-04-25T05:31:55;94770.44;;;12.42;100.00
12624;BME280;6377;42.836;23.998;2023-04-25T05:34:22;94759.31;;;12.65;100.00
12624;BME280;6377;42.836;23.998;2023-04-25T05:36:49;94762.97;;;12.70;100.00
12624;BME280;6377;42.836;23.998;2023-04-25T05:39:17;94713.06;;;12.54;100.00
12624;BME280;6377;42.836;23.998;2023-04-25T05:41:45;94744.91;;;12.85;100.00
12624;BME280;6377;42.836;23.998;2023-04-25T05:44:13;94729.00;;;12.85;100.00
12624;BME280;6377;42.836;23.998;2023-04-25T05:46:41;94760.88;;;13.10;100.00
12624;BME280;6377;42.836;23.998;2023-04-25T05:49:08;94767.56;;;13.19;100.00
12624;BME280;6377;42.836;23.998;2023-04-25T05:51:35;94765.91;;;13.18;100.00
12624;BME280;6377;42.836;23.998;2023-04-25T05:54:03;94765.44;;;13.28;100.00
12624;BME280;6377;42.836;23.998;2023-04-25T05:56:30;94766.84;;;13.30;100.00
12624;BME280;6377;42.836;23.998;2023-04-25T05:58:58;94745.09;;;13.15;100.00
12624;BME280;6377;42.836;23.998;2023-04-25T06:01:26;94753.66;;;13.24;100.00
12624;BME280;6377;42.836;23.998;2023-04-25T06:03:53;94725.56;;;13.10;100.00
12624;BME280;6377;42.836;23.998;2023-04-25T06:06:21;94686.31;;;12.87;100.00
12624;BME280;6377;42.836;23.998;2023-04-25T06:08:49;94692.38;;;12.94;100.00
12624;BME280;6377;42.836;23.998;2023-04-25T06:11:16;94676.25;;;12.71;100.00
12624;BME280;6377;42.836;23.998;2023-04-25T06:13:43;94701.53;;;12.98;100.00
12624;BME280;6377;42.836;23.998;2023-04-25T06:16:12;94750.88;;;13.37;100.00
12624;BME280;6377;42.836;23.998;2023-04-25T06:18:39;94729.91;;;13.29;100.00
12624;BME280;6377;42.836;23.998;2023-04-25T06:21:06;94699.53;;;13.18;100.00
12624;BME280;6377;42.836;23.998;2023-04-25T06:23:33;94731.59;;;13.41;100.00
12624;BME280;6377;42.836;23.998;2023-04-25T06:26:01;94644.00;;;12.67;100.00
12624;BME280;6377;42.836;23.998;2023-04-25T06:28:28;94682.09;;;12.79;100.00
12624;BME280;6377;42.836;23.998;2023-04-25T06:30:56;94742.69;;;13.14;100.00
12624;BME280;6377;42.836;23.998;2023-04-25T06:33:24;94670.03;;;12.77;100.00
12624;BME280;6377;42.836;23.998;2023-04-25T06:35:52;94740.97;;;13.26;100.00
12624;BME280;6377;42.836;23.998;2023-04-25T06:38:19;94719.00;;;13.12;100.00
12624;BME280;6377;42.836;23.998;2023-04-25T06:40:46;94768.41;;;13.63;100.00
12624;BME280;6377;42.836;23.998;2023-04-25T06:43:14;94740.44;;;13.60;100.00
12624;BME280;6377;42.836;23.998;2023-04-25T06:45:41;94721.53;;;13.50;100.00
12624;BME280;6377;42.836;23.998;2023-04-25T06:48:08;94701.31;;;13.49;100.00
12624;BME280;6377;42.836;23.998;2023-04-25T06:50:37;94735.59;;;13.93;100.00
12624;BME280;6377;42.836;23.998;2023-04-25T06:53:04;94722.06;;;13.95;100.00
12624;BME280;6377;42.836;23.998;2023-04-25T06:55:32;94717.72;;;14.00;100.00
12624;BME280;6377;42.836;23.998;2023-04-25T06:58:00;94730.78;;;14.02;100.00
12624;BME280;6377;42.836;23.998;2023-04-25T07:00:27;94742.25;;;14.21;100.00
12624;BME280;6377;42.836;23.998;2023-04-25T07:02:55;94722.22;;;14.00;100.00
12624;BME280;6377;42.836;23.998;2023-04-25T07:05:23;94795.41;;;14.57;100.00
12624;BME280;6377;42.836;23.998;2023-04-25T07:07:52;94749.06;;;14.35;100.00
12624;BME280;6377;42.836;23.998;2023-04-25T07:10:19;94706.41;;;14.23;100.00
12624;BME280;6377;42.836;23.998;2023-04-25T07:12:47;94787.63;;;14.74;100.00
12624;BME280;6377;42.836;23.998;2023-04-25T07:15:14;94788.44;;;14.74;100.00
12624;BME280;6377;42.836;23.998;2023-04-25T07:17:41;94750.75;;;14.59;100.00
12624;BME280;6377;42.836;23.998;2023-04-25T07:20:09;94788.72;;;14.84;100.00
12624;BME280;6377;42.836;23.998;2023-04-25T07:22:36;94798.00;;;14.93;100.00
12624;BME280;6377;42.836;23.998;2023-04-25T07:25:06;94785.53;;;14.94;100.00
12624;BME280;6377;42.836;23.998;2023-04-25T07:27:34;94658.19;;;14.01;100.00
12624;BME280;6377;42.836;23.998;2023-04-25T07:30:01;94761.97;;;14.79;100.00
12624;BME280;6377;42.836;23.998;2023-04-25T07:32:29;94676.84;;;14.31;100.00
12624;BME280;6377;42.836;23.998;2023-04-25T07:34:56;94790.75;;;15.12;100.00
12624;BME280;6377;42.836;23.998;2023-04-25T07:37:23;94782.22;;;15.22;100.00
12624;BME280;6377;42.836;23.998;2023-04-25T07:39:51;94791.75;;;15.29;100.00
12624;BME280;6377;42.836;23.998;2023-04-25T07:42:20;94785.72;;;15.34;100.00
12624;BME280;6377;42.836;23.998;2023-04-25T07:44:47;94793.16;;;15.32;100.00
12624;BME280;6377;42.836;23.998;2023-04-25T07:47:14;94786.06;;;15.26;100.00
12624;BME280;6377;42.836;23.998;2023-04-25T07:49:41;94722.06;;;14.91;100.00
12624;BME280;6377;42.836;23.998;2023-04-25T07:52:08;94791.97;;;15.28;100.00
12624;BME280;6377;42.836;23.998;2023-04-25T07:54:36;94779.66;;;15.15;100.00
12624;BME280;6377;42.836;23.998;2023-04-25T07:57:03;94787.69;;;15.38;100.00
12624;BME280;6377;42.836;23.998;2023-04-25T07:59:33;94727.06;;;14.99;100.00
12624;BME280;6377;42.836;23.998;2023-04-25T08:02:00;94796.56;;;15.50;100.00
12624;BME280;6377;42.836;23.998;2023-04-25T08:04:28;94798.13;;;15.40;100.00
12624;BME280;6377;42.836;23.998;2023-04-25T08:06:55;94711.84;;;14.76;100.00
12624;BME280;6377;42.836;23.998;2023-04-25T08:09:22;94811.75;;;15.50;100.00
12624;BME280;6377;42.836;23.998;2023-04-25T08:11:49;94768.44;;;15.25;100.00
12624;BME280;6377;42.836;23.998;2023-04-25T08:14:17;94651.63;;;14.64;100.00
12624;BME280;6377;42.836;23.998;2023-04-25T08:16:45;94802.69;;;15.51;100.00
12624;BME280;6377;42.836;23.998;2023-04-25T08:19:13;94720.63;;;14.77;100.00
12624;BME280;6377;42.836;23.998;2023-04-25T08:21:40;94630.81;;;14.31;100.00
12624;BME280;6377;42.836;23.998;2023-04-25T08:24:07;94826.53;;;15.46;100.00
12624;BME280;6377;42.836;23.998;2023-04-25T08:26:34;94783.31;;;15.32;100.00
12624;BME280;6377;42.836;23.998;2023-04-25T08:29:02;94694.25;;;14.75;100.00
12624;BME280;6377;42.836;23.998;2023-04-25T08:31:30;94644.00;;;14.67;100.00
12624;BME280;6377;42.836;23.998;2023-04-25T08:33:58;94668.31;;;14.71;95.56
12624;BME280;6377;42.836;23.998;2023-04-25T08:36:26;94802.38;;;15.70;94.05
12624;BME280;6377;42.836;23.998;2023-04-25T08:38:53;94776.97;;;15.56;100.00
12624;BME280;6377;42.836;23.998;2023-04-25T08:41:21;94787.31;;;15.76;100.00
12624;BME280;6377;42.836;23.998;2023-04-25T08:43:49;94787.91;;;15.66;96.61
12624;BME280;6377;42.836;23.998;2023-04-25T08:46:18;94802.97;;;15.84;97.20
12624;BME280;6377;42.836;23.998;2023-04-25T08:48:46;94753.47;;;15.53;95.65
12624;BME280;6377;42.836;23.998;2023-04-25T08:51:19;94744.88;;;15.51;94.87
12624;BME280;6377;42.836;23.998;2023-04-25T08:53:49;94794.97;;;15.96;96.38
12624;BME280;6377;42.836;23.998;2023-04-25T08:56:17;94788.47;;;16.03;95.32
12624;BME280;6377;42.836;23.998;2023-04-25T08:58:48;94780.31;;;16.21;97.74
12624;BME280;6377;42.836;23.998;2023-04-25T09:01:15;94754.47;;;16.22;93.17
12624;BME280;6377;42.836;23.998;2023-04-25T09:03:44;94779.81;;;16.59;88.10
12624;BME280;6377;42.836;23.998;2023-04-25T09:06:12;94691.75;;;16.08;89.16
12624;BME280;6377;42.836;23.998;2023-04-25T09:08:43;94774.97;;;16.85;83.23
12624;BME280;6377;42.836;23.998;2023-04-25T09:11:10;94773.97;;;17.02;86.36
12624;BME280;6377;42.836;23.998;2023-04-25T09:13:39;94745.53;;;16.68;82.65
12624;BME280;6377;42.836;23.998;2023-04-25T09:16:07;94770.50;;;16.62;82.90
12624;BME280;6377;42.836;23.998;2023-04-25T09:18:34;94758.44;;;16.59;88.53
12624;BME280;6377;42.836;23.998;2023-04-25T09:21:06;94712.84;;;16.09;85.79
12624;BME280;6377;42.836;23.998;2023-04-25T09:23:39;94740.78;;;16.18;88.37
12624;BME280;6377;42.836;23.998;2023-04-25T09:26:08;94774.72;;;16.58;88.48
12624;BME280;6377;42.836;23.998;2023-04-25T09:28:35;94777.22;;;16.64;87.46
12624;BME280;6377;42.836;23.998;2023-04-25T09:31:03;94783.63;;;16.63;79.68
12624;BME280;6377;42.836;23.998;2023-04-25T09:33:32;94796.72;;;16.65;84.01
12624;BME280;6377;42.836;23.998;2023-04-25T09:36:05;94785.78;;;16.78;89.31
12624;BME280;6377;42.836;23.998;2023-04-25T09:38:40;94792.94;;;16.49;90.93
12624;BME280;6377;42.836;23.998;2023-04-25T09:41:09;94798.88;;;16.28;90.29
12624;BME280;6377;42.836;23.998;2023-04-25T09:43:37;94770.84;;;16.14;92.53
12624;BME280;6377;42.836;23.998;2023-04-25T09:46:08;94788.91;;;16.12;90.99
12624;BME280;6377;42.836;23.998;2023-04-25T09:48:36;94787.66;;;16.14;91.98
12624;BME280;6377;42.836;23.998;2023-04-25T09:51:05;94774.63;;;16.18;91.69
12624;BME280;6377;42.836;23.998;2023-04-25T09:53:33;94631.44;;;15.44;92.81
12624;BME280;6377;42.836;23.998;2023-04-25T09:56:03;94750.09;;;16.44;88.29
12624;BME280;6377;42.836;23.998;2023-04-25T09:58:33;94766.31;;;16.66;87.52
12624;BME280;6377;42.836;23.998;2023-04-25T10:01:02;94763.78;;;16.59;87.63
12624;BME280;6377;42.836;23.998;2023-04-25T10:03:31;94618.13;;;15.32;89.29
12624;BME280;6377;42.836;23.998;2023-04-25T10:06:01;94766.63;;;16.18;82.30
12624;BME280;6377;42.836;23.998;2023-04-25T10:08:31;94772.81;;;16.07;85.72
12624;BME280;6377;42.836;23.998;2023-04-25T10:11:00;94732.75;;;15.67;71.46
12624;BME280;6377;42.836;23.998;2023-04-25T10:13:29;94776.88;;;15.86;66.98
12624;BME280;6377;42.836;23.998;2023-04-25T10:15:59;94779.44;;;15.81;65.49
12624;BME280;6377;42.836;23.998;2023-04-25T10:18:28;94717.06;;;15.59;65.58
12624;BME280;6377;42.836;23.998;2023-04-25T10:20:58;94618.13;;;14.97;63.73
12624;BME280;6377;42.836;23.998;2023-04-25T10:23:27;94583.50;;;15.09;62.75
12624;BME280;6377;42.836;23.998;2023-04-25T10:25:57;94563.09;;;15.61;62.28
12624;BME280;6377;42.836;23.998;2023-04-25T10:28:24;94722.25;;;17.25;57.83
12624;BME280;6377;42.836;23.998;2023-04-25T10:31:00;94745.69;;;17.84;57.01
12624;BME280;6377;42.836;23.998;2023-04-25T10:33:34;94613.84;;;17.12;56.44
12624;BME280;6377;42.836;23.998;2023-04-25T10:36:12;94566.59;;;16.96;56.76
12624;BME280;6377;42.836;23.998;2023-04-25T10:38:40;94555.91;;;16.63;54.37
12624;BME280;6377;42.836;23.998;2023-04-25T10:41:09;94541.88;;;16.39;57.78
12624;BME280;6377;42.836;23.998;2023-04-25T10:43:38;94713.66;;;18.11;56.14
12624;BME280;6377;42.836;23.998;2023-04-25T10:46:22;94712.06;;;18.75;59.85
12624;BME280;6377;42.836;23.998;2023-04-25T10:48:51;94633.38;;;18.11;54.85
12624;BME280;6377;42.836;23.998;2023-04-25T10:51:21;94541.19;;;17.54;60.46
12624;BME280;6377;42.836;23.998;2023-04-25T10:53:59;94627.47;;;18.31;62.31
12624;BME280;6377;42.836;23.998;2023-04-25T10:56:28;94628.53;;;18.52;64.75
12624;BME280;6377;42.836;23.998;2023-04-25T10:59:08;94572.09;;;18.10;63.71
12624;BME280;6377;42.836;23.998;2023-04-25T11:01:39;94688.59;;;18.39;60.10
12624;BME280;6377;42.836;23.998;2023-04-25T11:04:19;94662.00;;;18.32;62.99
12624;BME280;6377;42.836;23.998;2023-04-25T11:06:58;94679.63;;;18.50;64.73
12624;BME280;6377;42.836;23.998;2023-04-25T11:09:27;94614.47;;;18.18;66.47
12624;BME280;6377;42.836;23.998;2023-04-25T11:11:56;94670.22;;;18.47;61.81
12624;BME280;6377;42.836;23.998;2023-04-25T11:14:23;94526.53;;;17.56;56.36
12624;BME280;6377;42.836;23.998;2023-04-25T11:16:54;94670.09;;;18.59;59.08
12624;BME280;6377;42.836;23.998;2023-04-25T11:19:23;94640.28;;;18.51;62.06
12624;BME280;6377;42.836;23.998;2023-04-25T11:21:51;94620.38;;;18.20;57.12
12624;BME280;6377;42.836;23.998;2023-04-25T11:24:26;94627.50;;;17.87;60.68
12624;BME280;6377;42.836;23.998;2023-04-25T11:26:54;94667.41;;;17.94;59.20
12624;BME280;6377;42.836;23.998;2023-04-25T11:29:22;94578.94;;;17.19;59.92
12624;BME280;6377;42.836;23.998;2023-04-25T11:31:51;94610.44;;;17.17;60.60
12624;BME280;6377;42.836;23.998;2023-04-25T11:34:20;94687.19;;;17.21;59.81
12624;BME280;6377;42.836;23.998;2023-04-25T11:36:48;94636.94;;;16.29;57.96
12624;BME280;6377;42.836;23.998;2023-04-25T11:39:15;94615.78;;;15.36;66.76
12624;BME280;6377;42.836;23.998;2023-04-25T11:41:43;94738.06;;;15.02;74.11
12624;BME280;6377;42.836;23.998;2023-04-25T11:44:10;94693.56;;;13.66;87.61
12624;BME280;6377;42.836;23.998;2023-04-25T11:46:38;94590.13;;;12.91;100.00
12624;BME280;6377;42.836;23.998;2023-04-25T11:49:06;94602.75;;;12.71;100.00
12624;BME280;6377;42.836;23.998;2023-04-25T11:51:43;94599.03;;;12.79;100.00
12624;BME280;6377;42.836;23.998;2023-04-25T11:54:11;94674.31;;;13.52;100.00
12624;BME280;6377;42.836;23.998;2023-04-25T11:56:41;94571.81;;;13.44;100.00
12624;BME280;6377;42.836;23.998;2023-04-25T11:59:08;94673.56;;;14.89;100.00
12624;BME280;6377;42.836;23.998;2023-04-25T12:01:39;94566.75;;;14.85;92.20
12624;BME280;6377;42.836;23.998;2023-04-25T12:04:13;94704.06;;;16.37;96.61
12624;BME280;6377;42.836;23.998;2023-04-25T12:06:44;94648.41;;;17.19;76.51
12624;BME280;6377;42.836;23.998;2023-04-25T12:09:14;94647.81;;;18.32;71.04
12624;BME280;6377;42.836;23.998;2023-04-25T12:11:44;94613.31;;;19.21;66.97
12624;BME280;6377;42.836;23.998;2023-04-25T12:14:11;94629.56;;;20.40;62.00
12624;BME280;6377;42.836;23.998;2023-04-25T12:16:43;94627.28;;;21.29;53.15
12624;BME280;6377;42.836;23.998;2023-04-25T12:19:13;94534.13;;;21.68;50.61
12624;BME280;6377;42.836;23.998;2023-04-25T12:21:43;94595.72;;;22.44;48.69
12624;BME280;6377;42.836;23.998;2023-04-25T12:24:11;94662.34;;;22.87;48.80
12624;BME280;6377;42.836;23.998;2023-04-25T12:26:47;94570.03;;;22.67;44.78
12624;BME280;6377;42.836;23.998;2023-04-25T12:29:19;94647.63;;;22.75;45.60
12624;BME280;6377;42.836;23.998;2023-04-25T12:31:47;94566.72;;;22.26;45.58
12624;BME280;6377;42.836;23.998;2023-04-25T12:34:17;94504.06;;;22.15;45.74
12624;BME280;6377;42.836;23.998;2023-04-25T12:39:28;94658.50;;;22.45;42.72
12624;BME280;6377;42.836;23.998;2023-04-25T12:41:59;94564.09;;;22.16;46.42
12624;BME280;6377;42.836;23.998;2023-04-25T12:44:26;94467.09;;;20.57;47.50
12624;BME280;6377;42.836;23.998;2023-04-25T12:46:56;94448.22;;;20.88;49.09
12624;BME280;6377;42.836;23.998;2023-04-25T12:49:25;94485.72;;;21.63;48.26
12624;BME280;6377;42.836;23.998;2023-04-25T12:51:56;94459.84;;;21.67;47.52
12624;BME280;6377;42.836;23.998;2023-04-25T12:54:25;94595.41;;;21.82;47.57
12624;BME280;6377;42.836;23.998;2023-04-25T12:56:53;94467.88;;;20.53;51.03
12624;BME280;6377;42.836;23.998;2023-04-25T12:59:24;94472.72;;;20.31;52.34
12624;BME280;6377;42.836;23.998;2023-04-25T13:01:51;94544.41;;;20.35;53.17